sensor_id;sensor_type;location;lat;lon;timestamp;pressure;altitude;pressure_sealevel;temperature;humidity
44637;BME280;30343;0.000;0.000;2022-08-05T00:01:16;99752.31;;;22.53;64.59
44637;BME280;30343;0.000;0.000;2022-08-05T00:04:03;99757.66;;;22.51;64.86
44637;BME280;30343;0.000;0.000;2022-08-05T00:06:47;99748.94;;;22.49;64.80
44637;BME280;30343;0.000;0.000;2022-08-05T00:09:31;99757.78;;;22.48;64.55
44637;BME280;30343;0.000;0.000;2022-08-05T00:12:15;99766.63;;;22.47;64.57
44637;BME280;30343;0.000;0.000;2022-08-05T00:14:59;99774.59;;;22.46;64.72
44637;BME280;30343;0.000;0.000;2022-08-05T00:17:46;99765.81;;;22.45;64.90
44637;BME280;30343;0.000;0.000;2022-08-05T00:20:31;99758.00;;;22.42;64.85
44637;BME280;30343;0.000;0.000;2022-08-05T00:23:17;99756.22;;;22.43;64.73
44637;BME280;30343;0.000;0.000;2022-08-05T00:26:04;99748.31;;;22.41;64.36
44637;BME280;30343;0.000;0.000;2022-08-05T00:28:49;99750.16;;;22.39;64.89
44637;BME280;30343;0.000;0.000;2022-08-05T00:31:36;99753.72;;;22.38;64.91
44637;BME280;30343;0.000;0.000;2022-08-05T00:34:21;99754.53;;;22.40;64.82
44637;BME280;30343;0.000;0.000;2022-08-05T00:37:05;99753.59;;;22.41;64.76
44637;BME280;30343;0.000;0.000;2022-08-05T00:39:49;99752.75;;;22.41;64.76
44637;BME280;30343;0.000;0.000;2022-08-05T00:42:35;99762.44;;;22.40;64.87
44637;BME280;30343;0.000;0.000;2022-08-05T00:45:22;99779.16;;;22.41;64.94
44637;BME280;30343;0.000;0.000;2022-08-05T00:48:06;99770.44;;;22.39;64.83
44637;BME280;30343;0.000;0.000;2022-08-05T00:50:54;99744.97;;;22.38;64.80
44637;BME280;30343;0.000;0.000;2022-08-05T00:53:40;99768.75;;;22.36;64.95
44637;BME280;30343;0.000;0.000;2022-08-05T00:56:25;99796.06;;;22.35;64.91
44637;BME280;30343;0.000;0.000;2022-08-05T00:59:13;99826.16;;;22.31;64.91
44637;BME280;30343;0.000;0.000;2022-08-05T01:01:57;99863.28;;;22.26;65.20
44637;BME280;30343;0.000;0.000;2022-08-05T01:04:41;99903.00;;;22.21;65.15
44637;BME280;30343;0.000;0.000;2022-08-05T01:07:25;99918.69;;;22.26;65.31
44637;BME280;30343;0.000;0.000;2022-08-05T01:10:12;99924.91;;;22.25;65.00
44637;BME280;30343;0.000;0.000;2022-08-05T01:13:04;99927.63;;;22.22;65.01
44637;BME280;30343;0.000;0.000;2022-08-05T01:16:01;99935.59;;;22.20;64.97
44637;BME280;30343;0.000;0.000;2022-08-05T01:18:50;99941.69;;;22.23;65.08
44637;BME280;30343;0.000;0.000;2022-08-05T01:22:06;99943.41;;;22.24;64.77
44637;BME280;30343;0.000;0.000;2022-08-05T01:25:04;99934.75;;;22.20;65.26
44637;BME280;30343;0.000;0.000;2022-08-05T01:28:15;99904.72;;;22.23;65.06
44637;BME280;30343;0.000;0.000;2022-08-05T01:31:14;99901.25;;;22.22;65.14
44637;BME280;30343;0.000;0.000;2022-08-05T01:34:16;99880.13;;;22.22;65.09
44637;BME280;30343;0.000;0.000;2022-08-05T01:37:15;99854.59;;;22.23;65.12
44637;BME280;30343;0.000;0.000;2022-08-05T01:40:01;99828.19;;;22.23;65.27
44637;BME280;30343;0.000;0.000;2022-08-05T01:42:48;99809.72;;;22.23;64.96
44637;BME280;30343;0.000;0.000;2022-08-05T01:45:34;99799.16;;;22.23;65.23
44637;BME280;30343;0.000;0.000;2022-08-05T01:48:21;99764.03;;;22.20;65.19
44637;BME280;30343;0.000;0.000;2022-08-05T01:51:08;99758.91;;;22.17;65.09
44637;BME280;30343;0.000;0.000;2022-08-05T01:53:53;99744.03;;;22.15;65.59
44637;BME280;30343;0.000;0.000;2022-08-05T01:56:40;99733.53;;;22.13;65.24
44637;BME280;30343;0.000;0.000;2022-08-05T01:59:29;99755.56;;;22.12;65.54
44637;BME280;30343;0.000;0.000;2022-08-05T02:02:16;99774.03;;;22.12;65.50
44637;BME280;30343;0.000;0.000;2022-08-05T02:05:06;99766.03;;;22.14;65.23
44637;BME280;30343;0.000;0.000;2022-08-05T02:07:51;99747.63;;;22.12;65.42
44637;BME280;30343;0.000;0.000;2022-08-05T02:10:40;99759.19;;;22.10;65.26
44637;BME280;30343;0.000;0.000;2022-08-05T02:13:27;99778.50;;;22.10;65.07
44637;BME280;30343;0.000;0.000;2022-08-05T02:16:29;99803.13;;;22.11;65.19
44637;BME280;30343;0.000;0.000;2022-08-05T02:19:36;99821.47;;;22.14;65.26
44637;BME280;30343;0.000;0.000;2022-08-05T02:22:29;99827.56;;;22.16;65.08
44637;BME280;30343;0.000;0.000;2022-08-05T02:25:20;99828.34;;;22.18;65.12
44637;BME280;30343;0.000;0.000;2022-08-05T02:28:06;99852.19;;;22.16;65.26
44637;BME280;30343;0.000;0.000;2022-08-05T02:30:55;99861.00;;;22.15;65.12
44637;BME280;30343;0.000;0.000;2022-08-05T02:33:48;99868.03;;;22.15;65.14
44637;BME280;30343;0.000;0.000;2022-08-05T02:36:38;99877.75;;;22.14;65.21
44637;BME280;30343;0.000;0.000;2022-08-05T02:39:26;99878.66;;;22.13;64.95
44637;BME280;30343;0.000;0.000;2022-08-05T02:42:12;99876.03;;;22.13;65.29
44637;BME280;30343;0.000;0.000;2022-08-05T02:44:57;99872.50;;;22.13;65.22
44637;BME280;30343;0.000;0.000;2022-08-05T02:47:43;99853.19;;;22.12;65.24
44637;BME280;30343;0.000;0.000;2022-08-05T02:50:30;99844.34;;;22.13;65.27
44637;BME280;30343;0.000;0.000;2022-08-05T02:53:14;99824.09;;;22.14;65.32
44637;BME280;30343;0.000;0.000;2022-08-05T02:56:01;99822.34;;;22.14;65.03
44637;BME280;30343;0.000;0.000;2022-08-05T02:58:46;99827.56;;;22.16;65.18
44637;BME280;30343;0.000;0.000;2022-08-05T03:01:33;99839.03;;;22.15;65.18
44637;BME280;30343;0.000;0.000;2022-08-05T03:04:18;99824.09;;;22.14;65.33
44637;BME280;30343;0.000;0.000;2022-08-05T03:07:03;99786.31;;;22.13;65.22
44637;BME280;30343;0.000;0.000;2022-08-05T03:09:50;99776.66;;;22.12;65.30
44637;BME280;30343;0.000;0.000;2022-08-05T03:12:43;99802.25;;;22.10;65.26
44637;BME280;30343;0.000;0.000;2022-08-05T03:15:27;99803.13;;;22.11;65.42
44637;BME280;30343;0.000;0.000;2022-08-05T03:18:11;99779.38;;;22.11;65.40
44637;BME280;30343;0.000;0.000;2022-08-05T03:20:55;99790.06;;;22.06;65.38
44637;BME280;30343;0.000;0.000;2022-08-05T03:23:41;99799.88;;;22.02;65.35
44637;BME280;30343;0.000;0.000;2022-08-05T03:26:28;99807.09;;;21.97;65.42
44637;BME280;30343;0.000;0.000;2022-08-05T03:29:15;99794.81;;;21.96;65.54
44637;BME280;30343;0.000;0.000;2022-08-05T03:31:59;99786.88;;;21.96;65.45
44637;BME280;30343;0.000;0.000;2022-08-05T03:34:47;99777.38;;;21.92;65.56
44637;BME280;30343;0.000;0.000;2022-08-05T03:37:32;99769.47;;;21.92;65.62
44637;BME280;30343;0.000;0.000;2022-08-05T03:40:21;99756.28;;;21.92;65.57
44637;BME280;30343;0.000;0.000;2022-08-05T03:43:05;99742.19;;;21.93;65.65
44637;BME280;30343;0.000;0.000;2022-08-05T03:45:52;99736.00;;;21.94;65.61
44637;BME280;30343;0.000;0.000;2022-08-05T03:48:37;99729.84;;;21.94;65.54
44637;BME280;30343;0.000;0.000;2022-08-05T03:51:36;99740.34;;;21.95;65.38
44637;BME280;30343;0.000;0.000;2022-08-05T03:54:34;99750.09;;;21.93;65.67
44637;BME280;30343;0.000;0.000;2022-08-05T03:57:21;99738.66;;;21.93;65.68
44637;BME280;30343;0.000;0.000;2022-08-05T04:00:10;99750.09;;;21.93;65.73
44637;BME280;30343;0.000;0.000;2022-08-05T04:02:58;99765.00;;;21.94;65.67
44637;BME280;30343;0.000;0.000;2022-08-05T04:05:49;99767.66;;;21.94;65.70
44637;BME280;30343;0.000;0.000;2022-08-05T04:08:34;99781.69;;;21.95;65.57
44637;BME280;30343;0.000;0.000;2022-08-05T04:11:20;99783.41;;;21.96;65.61
44637;BME280;30343;0.000;0.000;2022-08-05T04:14:04;99783.41;;;21.96;65.83
44637;BME280;30343;0.000;0.000;2022-08-05T04:16:49;99790.47;;;21.95;65.67
44637;BME280;30343;0.000;0.000;2022-08-05T04:19:42;99796.59;;;21.96;65.45
44637;BME280;30343;0.000;0.000;2022-08-05T04:22:26;99790.47;;;21.95;65.75
44637;BME280;30343;0.000;0.000;2022-08-05T04:25:14;99805.34;;;21.96;65.51
44637;BME280;30343;0.000;0.000;2022-08-05T04:27:58;99816.78;;;21.97;65.64
44637;BME280;30343;0.000;0.000;2022-08-05T04:30:45;99807.16;;;21.96;65.75
44637;BME280;30343;0.000;0.000;2022-08-05T04:33:29;99812.44;;;21.96;65.66
44637;BME280;30343;0.000;0.000;2022-08-05T04:36:13;99818.72;;;21.92;65.73
44637;BME280;30343;0.000;0.000;2022-08-05T04:39:03;99836.38;;;21.89;65.85
44637;BME280;30343;0.000;0.000;2022-08-05T04:41:50;99836.50;;;21.86;65.67
44637;BME280;30343;0.000;0.000;2022-08-05T04:44:34;99822.34;;;21.89;65.72
44637;BME280;30343;0.000;0.000;2022-08-05T04:47:18;99813.53;;;21.88;65.60
44637;BME280;30343;0.000;0.000;2022-08-05T04:50:08;99825.06;;;21.86;65.65
44637;BME280;30343;0.000;0.000;2022-08-05T04:52:55;99817.22;;;21.84;65.61
44637;BME280;30343;0.000;0.000;2022-08-05T04:55:40;99814.59;;;21.84;65.82
44637;BME280;30343;0.000;0.000;2022-08-05T04:58:24;99824.25;;;21.84;65.77
44637;BME280;30343;0.000;0.000;2022-08-05T05:01:10;99822.59;;;21.81;65.91
44637;BME280;30343;0.000;0.000;2022-08-05T05:03:57;99825.22;;;21.81;65.85
44637;BME280;30343;0.000;0.000;2022-08-05T05:06:44;99817.31;;;21.81;65.89
44637;BME280;30343;0.000;0.000;2022-08-05T05:09:28;99813.94;;;21.78;65.87
44637;BME280;30343;0.000;0.000;2022-08-05T05:12:14;99810.41;;;21.77;65.95
44637;BME280;30343;0.000;0.000;2022-08-05T05:15:05;99808.66;;;21.78;65.94
44637;BME280;30343;0.000;0.000;2022-08-05T05:17:49;99807.75;;;21.79;65.90
44637;BME280;30343;0.000;0.000;2022-08-05T05:20:32;99813.06;;;21.77;65.80
44637;BME280;30343;0.000;0.000;2022-08-05T05:23:16;99815.66;;;21.79;65.90
44637;BME280;30343;0.000;0.000;2022-08-05T05:26:12;99813.81;;;21.81;65.87
44637;BME280;30343;0.000;0.000;2022-08-05T05:29:02;99807.63;;;21.82;65.70
44637;BME280;30343;0.000;0.000;2022-08-05T05:31:51;99812.03;;;21.81;65.83
44637;BME280;30343;0.000;0.000;2022-08-05T05:34:42;99815.59;;;21.80;65.96
44637;BME280;30343;0.000;0.000;2022-08-05T05:37:26;99815.66;;;21.79;65.82
44637;BME280;30343;0.000;0.000;2022-08-05T05:40:15;99820.94;;;21.79;66.15
44637;BME280;30343;0.000;0.000;2022-08-05T05:43:04;99821.88;;;21.76;65.96
44637;BME280;30343;0.000;0.000;2022-08-05T05:45:48;99832.44;;;21.76;66.02
44637;BME280;30343;0.000;0.000;2022-08-05T05:48:33;99838.59;;;21.77;66.06
44637;BME280;30343;0.000;0.000;2022-08-05T05:51:27;99834.25;;;21.74;65.95
44637;BME280;30343;0.000;0.000;2022-08-05T05:54:14;99843.88;;;21.75;65.95
44637;BME280;30343;0.000;0.000;2022-08-05T05:57:01;99842.13;;;21.75;66.07
44637;BME280;30343;0.000;0.000;2022-08-05T05:59:51;99853.59;;;21.74;66.03
44637;BME280;30343;0.000;0.000;2022-08-05T06:02:39;99852.72;;;21.74;66.16
44637;BME280;30343;0.000;0.000;2022-08-05T06:05:28;99862.34;;;21.75;66.03
44637;BME280;30343;0.000;0.000;2022-08-05T06:08:15;99863.25;;;21.74;66.10
44637;BME280;30343;0.000;0.000;2022-08-05T06:11:02;99862.41;;;21.73;66.04
44637;BME280;30343;0.000;0.000;2022-08-05T06:13:46;99866.88;;;21.71;66.08
44637;BME280;30343;0.000;0.000;2022-08-05T06:16:30;99868.66;;;21.71;66.21
44637;BME280;30343;0.000;0.000;2022-08-05T06:19:14;99883.66;;;21.69;66.23
44637;BME280;30343;0.000;0.000;2022-08-05T06:21:58;99876.59;;;21.69;66.32
44637;BME280;30343;0.000;0.000;2022-08-05T06:24:42;99881.94;;;21.68;66.31
44637;BME280;30343;0.000;0.000;2022-08-05T06:27:28;99886.34;;;21.67;66.20
44637;BME280;30343;0.000;0.000;2022-08-05T06:30:15;99892.59;;;21.65;66.32
44637;BME280;30343;0.000;0.000;2022-08-05T06:33:05;99892.59;;;21.65;66.30
44637;BME280;30343;0.000;0.000;2022-08-05T06:35:54;99893.50;;;21.64;66.39
44637;BME280;30343;0.000;0.000;2022-08-05T06:38:41;99899.66;;;21.64;66.44
44637;BME280;30343;0.000;0.000;2022-08-05T06:41:29;99901.34;;;21.65;66.25
44637;BME280;30343;0.000;0.000;2022-08-05T06:44:13;99908.41;;;21.65;66.53
44637;BME280;30343;0.000;0.000;2022-08-05T06:47:02;99908.47;;;21.63;66.44
44637;BME280;30343;0.000;0.000;2022-08-05T06:49:52;99911.13;;;21.62;66.54
44637;BME280;30343;0.000;0.000;2022-08-05T06:52:36;99916.38;;;21.63;66.47
44637;BME280;30343;0.000;0.000;2022-08-05T06:55:28;99921.69;;;21.62;66.51
44637;BME280;30343;0.000;0.000;2022-08-05T06:58:12;99926.09;;;21.61;66.52
44637;BME280;30343;0.000;0.000;2022-08-05T07:01:04;99930.56;;;21.57;66.59
44637;BME280;30343;0.000;0.000;2022-08-05T07:03:51;99937.56;;;21.58;66.59
44637;BME280;30343;0.000;0.000;2022-08-05T07:06:38;99940.19;;;21.58;66.56
44637;BME280;30343;0.000;0.000;2022-08-05T07:09:25;99951.66;;;21.57;66.64
44637;BME280;30343;0.000;0.000;2022-08-05T07:12:09;99953.50;;;21.55;66.53
44637;BME280;30343;0.000;0.000;2022-08-05T07:15:13;99947.44;;;21.52;66.63
44637;BME280;30343;0.000;0.000;2022-08-05T07:18:16;99964.97;;;21.53;66.61
44637;BME280;30343;0.000;0.000;2022-08-05T07:21:00;99969.44;;;21.51;66.75
44637;BME280;30343;0.000;0.000;2022-08-05T07:23:47;99969.50;;;21.49;66.77
44637;BME280;30343;0.000;0.000;2022-08-05T07:26:31;99975.63;;;21.50;66.42
44637;BME280;30343;0.000;0.000;2022-08-05T07:29:15;99980.94;;;21.48;66.74
44637;BME280;30343;0.000;0.000;2022-08-05T07:31:59;99988.00;;;21.48;66.63
44637;BME280;30343;0.000;0.000;2022-08-05T07:34:48;99987.13;;;21.47;66.54
44637;BME280;30343;0.000;0.000;2022-08-05T07:37:37;99995.94;;;21.46;66.59
44637;BME280;30343;0.000;0.000;2022-08-05T07:40:21;100000.38;;;21.44;66.68
44637;BME280;30343;0.000;0.000;2022-08-05T07:43:08;100003.16;;;21.41;66.66
44637;BME280;30343;0.000;0.000;2022-08-05T07:45:55;100009.31;;;21.40;66.64
44637;BME280;30343;0.000;0.000;2022-08-05T07:48:42;100013.78;;;21.38;66.76
44637;BME280;30343;0.000;0.000;2022-08-05T07:51:35;100015.59;;;21.34;66.76
44637;BME280;30343;0.000;0.000;2022-08-05T07:54:19;100017.41;;;21.34;66.67
44637;BME280;30343;0.000;0.000;2022-08-05T07:57:05;100021.84;;;21.32;66.58
44637;BME280;30343;0.000;0.000;2022-08-05T07:59:49;100019.22;;;21.32;66.37
44637;BME280;30343;0.000;0.000;2022-08-05T08:02:33;100026.28;;;21.29;66.59
44637;BME280;30343;0.000;0.000;2022-08-05T08:05:17;100035.16;;;21.27;66.78
44637;BME280;30343;0.000;0.000;2022-08-05T08:08:01;100035.25;;;21.24;66.73
44637;BME280;30343;0.000;0.000;2022-08-05T08:10:45;100034.41;;;21.22;66.57
44637;BME280;30343;0.000;0.000;2022-08-05T08:13:32;100033.56;;;21.21;66.50
44637;BME280;30343;0.000;0.000;2022-08-05T08:16:16;100031.84;;;21.20;66.71
44637;BME280;30343;0.000;0.000;2022-08-05T08:19:00;100036.28;;;21.18;66.65
44637;BME280;30343;0.000;0.000;2022-08-05T08:21:43;100040.72;;;21.16;66.65
44637;BME280;30343;0.000;0.000;2022-08-05T08:24:28;100039.00;;;21.15;66.67
44637;BME280;30343;0.000;0.000;2022-08-05T08:27:12;100044.31;;;21.13;66.53
44637;BME280;30343;0.000;0.000;2022-08-05T08:30:00;100047.81;;;21.14;66.69
44637;BME280;30343;0.000;0.000;2022-08-05T08:32:43;100054.81;;;21.15;66.75
44637;BME280;30343;0.000;0.000;2022-08-05T08:35:27;100057.50;;;21.13;66.64
44637;BME280;30343;0.000;0.000;2022-08-05T08:38:11;100061.88;;;21.13;66.64
44637;BME280;30343;0.000;0.000;2022-08-05T08:40:57;100060.13;;;21.13;66.59
44637;BME280;30343;0.000;0.000;2022-08-05T08:43:46;100061.03;;;21.12;66.58
44637;BME280;30343;0.000;0.000;2022-08-05T08:46:33;100064.53;;;21.13;66.48
44637;BME280;30343;0.000;0.000;2022-08-05T08:49:19;100069.78;;;21.13;66.57
44637;BME280;30343;0.000;0.000;2022-08-05T08:52:16;100073.31;;;21.13;66.56
44637;BME280;30343;0.000;0.000;2022-08-05T08:55:02;100081.22;;;21.12;66.43
44637;BME280;30343;0.000;0.000;2022-08-05T08:57:46;100080.31;;;21.13;66.48
44637;BME280;30343;0.000;0.000;2022-08-05T09:00:32;100082.94;;;21.14;66.18
44637;BME280;30343;0.000;0.000;2022-08-05T09:03:16;100083.78;;;21.15;66.51
44637;BME280;30343;0.000;0.000;2022-08-05T09:06:00;100089.13;;;21.13;66.50
44637;BME280;30343;0.000;0.000;2022-08-05T09:08:44;100103.19;;;21.12;66.15
44637;BME280;30343;0.000;0.000;2022-08-05T09:11:31;100097.09;;;21.10;66.41
44637;BME280;30343;0.000;0.000;2022-08-05T09:14:15;100110.22;;;21.12;66.45
44637;BME280;30343;0.000;0.000;2022-08-05T09:16:59;100110.31;;;21.09;66.33
44637;BME280;30343;0.000;0.000;2022-08-05T09:19:46;100115.53;;;21.10;66.27
44637;BME280;30343;0.000;0.000;2022-08-05T09:23:10;100118.13;;;21.12;66.57
44637;BME280;30343;0.000;0.000;2022-08-05T09:26:09;100120.88;;;21.09;66.38
44637;BME280;30343;0.000;0.000;2022-08-05T09:28:58;100121.66;;;21.11;66.31
44637;BME280;30343;0.000;0.000;2022-08-05T09:31:43;100136.63;;;21.10;66.38
44637;BME280;30343;0.000;0.000;2022-08-05T09:37:37;100138.41;;;21.08;66.36
44637;BME280;30343;0.000;0.000;2022-08-05T09:40:33;100144.66;;;21.06;66.40
44637;BME280;30343;0.000;0.000;2022-08-05T09:43:28;100151.66;;;21.05;66.34
44637;BME280;30343;0.000;0.000;2022-08-05T09:46:32;100146.44;;;21.04;66.21
44637;BME280;30343;0.000;0.000;2022-08-05T09:49:23;100152.63;;;21.03;66.38
44637;BME280;30343;0.000;0.000;2022-08-05T09:52:27;100154.38;;;21.02;66.24
44637;BME280;30343;0.000;0.000;2022-08-05T09:55:14;100158.75;;;21.03;66.57
44637;BME280;30343;0.000;0.000;2022-08-05T09:58:09;100164.91;;;21.02;66.43
44637;BME280;30343;0.000;0.000;2022-08-05T10:01:03;100160.53;;;21.03;66.54
44637;BME280;30343;0.000;0.000;2022-08-05T10:04:07;100166.69;;;21.02;66.33
44637;BME280;30343;0.000;0.000;2022-08-05T10:06:55;100171.91;;;21.03;66.43
44637;BME280;30343;0.000;0.000;2022-08-05T10:09:54;100166.66;;;21.03;66.56
44637;BME280;30343;0.000;0.000;2022-08-05T10:12:44;100168.44;;;21.03;66.45
44637;BME280;30343;0.000;0.000;2022-08-05T10:15:34;100176.38;;;21.01;66.66
44637;BME280;30343;0.000;0.000;2022-08-05T10:18:19;100170.19;;;21.02;66.49
44637;BME280;30343;0.000;0.000;2022-08-05T10:21:06;100170.09;;;21.05;66.50
44637;BME280;30343;0.000;0.000;2022-08-05T10:23:50;100168.34;;;21.06;66.56
44637;BME280;30343;0.000;0.000;2022-08-05T10:26:37;100172.72;;;21.07;66.55
44637;BME280;30343;0.000;0.000;2022-08-05T10:29:25;100166.56;;;21.06;66.49
44637;BME280;30343;0.000;0.000;2022-08-05T10:32:12;100171.84;;;21.06;66.33
44637;BME280;30343;0.000;0.000;2022-08-05T10:35:02;100172.69;;;21.08;66.43
44637;BME280;30343;0.000;0.000;2022-08-05T10:37:47;100173.56;;;21.07;66.37
44637;BME280;30343;0.000;0.000;2022-08-05T10:40:38;100170.91;;;21.09;66.37
44637;BME280;30343;0.000;0.000;2022-08-05T10:43:34;100171.81;;;21.08;66.34
44637;BME280;30343;0.000;0.000;2022-08-05T10:46:19;100172.63;;;21.10;66.38
44637;BME280;30343;0.000;0.000;2022-08-05T10:49:07;100176.13;;;21.10;66.41
44637;BME280;30343;0.000;0.000;2022-08-05T10:51:54;100177.00;;;21.11;66.38
44637;BME280;30343;0.000;0.000;2022-08-05T10:55:03;100171.69;;;21.12;66.31
44637;BME280;30343;0.000;0.000;2022-08-05T10:58:10;100177.81;;;21.14;66.29
44637;BME280;30343;0.000;0.000;2022-08-05T11:00:54;100176.91;;;21.16;66.46
44637;BME280;30343;0.000;0.000;2022-08-05T11:09:47;100181.13;;;21.21;66.25
44637;BME280;30343;0.000;0.000;2022-08-05T11:15:36;100189.88;;;21.23;66.17
44637;BME280;30343;0.000;0.000;2022-08-05T11:18:30;100181.06;;;21.24;66.12
44637;BME280;30343;0.000;0.000;2022-08-05T11:21:32;100173.09;;;21.26;66.15
44637;BME280;30343;0.000;0.000;2022-08-05T11:24:16;100182.69;;;21.28;66.08
44637;BME280;30343;0.000;0.000;2022-08-05T11:27:29;100183.53;;;21.30;66.08
44637;BME280;30343;0.000;0.000;2022-08-05T11:30:17;100180.88;;;21.30;66.08
44637;BME280;30343;0.000;0.000;2022-08-05T11:36:18;100186.13;;;21.32;66.09
44637;BME280;30343;0.000;0.000;2022-08-05T11:39:03;100193.09;;;21.35;65.92
44637;BME280;30343;0.000;0.000;2022-08-05T11:41:51;100194.03;;;21.32;65.89
44637;BME280;30343;0.000;0.000;2022-08-05T11:44:36;100197.59;;;21.31;66.03
44637;BME280;30343;0.000;0.000;2022-08-05T11:47:22;100195.78;;;21.32;65.84
44637;BME280;30343;0.000;0.000;2022-08-05T11:50:09;100192.31;;;21.31;65.83
44637;BME280;30343;0.000;0.000;2022-08-05T11:52:53;100197.59;;;21.31;65.81
44637;BME280;30343;0.000;0.000;2022-08-05T11:55:51;100190.53;;;21.32;65.69
44637;BME280;30343;0.000;0.000;2022-08-05T11:58:38;100189.56;;;21.34;65.69
44637;BME280;30343;0.000;0.000;2022-08-05T12:01:25;100193.00;;;21.38;65.66
44637;BME280;30343;0.000;0.000;2022-08-05T12:04:09;100203.50;;;21.39;65.53
44637;BME280;30343;0.000;0.000;2022-08-05T12:06:53;100198.22;;;21.41;65.52
44637;BME280;30343;0.000;0.000;2022-08-05T12:09:39;100197.38;;;21.39;65.60
44637;BME280;30343;0.000;0.000;2022-08-05T12:12:27;100204.34;;;21.41;65.56
44637;BME280;30343;0.000;0.000;2022-08-05T12:15:18;100204.38;;;21.40;65.42
44637;BME280;30343;0.000;0.000;2022-08-05T12:18:03;100213.22;;;21.37;65.50
44637;BME280;30343;0.000;0.000;2022-08-05T12:20:50;100222.00;;;21.38;65.41
44637;BME280;30343;0.000;0.000;2022-08-05T12:23:34;100226.44;;;21.36;65.38
44637;BME280;30343;0.000;0.000;2022-08-05T12:26:20;100221.19;;;21.34;65.27
44637;BME280;30343;0.000;0.000;2022-08-05T12:29:08;100226.53;;;21.33;65.31
44637;BME280;30343;0.000;0.000;2022-08-05T12:31:58;100238.88;;;21.30;65.08
44637;BME280;30343;0.000;0.000;2022-08-05T12:34:43;100237.97;;;21.32;65.23
44637;BME280;30343;0.000;0.000;2022-08-05T12:37:26;100241.50;;;21.32;65.29
44637;BME280;30343;0.000;0.000;2022-08-05T12:40:14;100243.22;;;21.33;65.33
44637;BME280;30343;0.000;0.000;2022-08-05T12:42:58;100249.28;;;21.35;65.14
44637;BME280;30343;0.000;0.000;2022-08-05T12:45:55;100251.97;;;21.34;65.09
44637;BME280;30343;0.000;0.000;2022-08-05T12:48:39;100250.25;;;21.33;64.93
44637;BME280;30343;0.000;0.000;2022-08-05T12:51:23;100248.50;;;21.33;64.91
44637;BME280;30343;0.000;0.000;2022-08-05T12:54:10;100249.34;;;21.34;64.94
44637;BME280;30343;0.000;0.000;2022-08-05T12:57:03;100251.06;;;21.35;64.85
44637;BME280;30343;0.000;0.000;2022-08-05T13:02:35;100261.56;;;21.38;64.47
44637;BME280;30343;0.000;0.000;2022-08-05T13:05:21;100257.13;;;21.38;64.73
44637;BME280;30343;0.000;0.000;2022-08-05T13:08:05;100258.91;;;21.38;64.40
44637;BME280;30343;0.000;0.000;2022-08-05T13:10:49;100269.47;;;21.36;64.39
44637;BME280;30343;0.000;0.000;2022-08-05T13:13:37;100270.44;;;21.34;64.29
44637;BME280;30343;0.000;0.000;2022-08-05T13:16:23;100268.69;;;21.33;64.51
44637;BME280;30343;0.000;0.000;2022-08-05T13:19:11;100274.03;;;21.31;64.04
44637;BME280;30343;0.000;0.000;2022-08-05T13:21:55;100277.50;;;21.33;63.98
44637;BME280;30343;0.000;0.000;2022-08-05T13:24:39;100275.75;;;21.32;64.05
44637;BME280;30343;0.000;0.000;2022-08-05T13:27:28;100271.28;;;21.34;63.94
44637;BME280;30343;0.000;0.000;2022-08-05T13:30:14;100273.00;;;21.37;63.72
44637;BME280;30343;0.000;0.000;2022-08-05T13:32:58;100273.00;;;21.37;63.92
44637;BME280;30343;0.000;0.000;2022-08-05T13:35:42;100273.00;;;21.37;63.55
44637;BME280;30343;0.000;0.000;2022-08-05T13:38:26;100273.81;;;21.39;63.58
44637;BME280;30343;0.000;0.000;2022-08-05T13:41:10;100282.63;;;21.38;63.66
44637;BME280;30343;0.000;0.000;2022-08-05T13:43:55;100282.63;;;21.38;63.53
44637;BME280;30343;0.000;0.000;2022-08-05T13:46:39;100284.44;;;21.36;63.16
44637;BME280;30343;0.000;0.000;2022-08-05T13:49:23;100293.19;;;21.36;63.63
44637;BME280;30343;0.000;0.000;2022-08-05T13:54:58;100295.00;;;21.34;63.14
44637;BME280;30343;0.000;0.000;2022-08-05T13:57:42;100286.25;;;21.34;63.21
44637;BME280;30343;0.000;0.000;2022-08-05T14:00:25;100290.63;;;21.35;63.22
44637;BME280;30343;0.000;0.000;2022-08-05T14:03:09;100293.31;;;21.33;63.13
44637;BME280;30343;0.000;0.000;2022-08-05T14:05:53;100295.06;;;21.33;62.64
44637;BME280;30343;0.000;0.000;2022-08-05T14:08:37;100296.00;;;21.30;62.74
44637;BME280;30343;0.000;0.000;2022-08-05T14:11:23;100299.53;;;21.29;62.29
44637;BME280;30343;0.000;0.000;2022-08-05T14:14:08;100304.81;;;21.29;62.18
44637;BME280;30343;0.000;0.000;2022-08-05T14:16:52;100298.66;;;21.28;62.78
44637;BME280;30343;0.000;0.000;2022-08-05T14:19:35;100302.19;;;21.29;62.34
44637;BME280;30343;0.000;0.000;2022-08-05T14:22:19;100308.31;;;21.29;62.16
44637;BME280;30343;0.000;0.000;2022-08-05T14:25:07;100316.19;;;21.31;62.12
44637;BME280;30343;0.000;0.000;2022-08-05T14:27:57;100317.03;;;21.33;62.31
44637;BME280;30343;0.000;0.000;2022-08-05T14:30:44;100317.94;;;21.32;61.95
44637;BME280;30343;0.000;0.000;2022-08-05T14:33:31;100324.03;;;21.33;61.81
44637;BME280;30343;0.000;0.000;2022-08-05T14:36:20;100327.59;;;21.32;61.62
44637;BME280;30343;0.000;0.000;2022-08-05T14:39:10;100317.94;;;21.32;61.62
44637;BME280;30343;0.000;0.000;2022-08-05T14:41:59;100318.81;;;21.31;61.46
44637;BME280;30343;0.000;0.000;2022-08-05T14:44:50;100325.78;;;21.34;61.28
44637;BME280;30343;0.000;0.000;2022-08-05T14:47:39;100322.28;;;21.33;61.18
44637;BME280;30343;0.000;0.000;2022-08-05T14:50:23;100327.59;;;21.32;61.08
44637;BME280;30343;0.000;0.000;2022-08-05T14:53:12;100329.38;;;21.29;60.60
44637;BME280;30343;0.000;0.000;2022-08-05T14:55:56;100341.72;;;21.29;60.88
44637;BME280;30343;0.000;0.000;2022-08-05T14:58:40;100335.59;;;21.27;60.99
44637;BME280;30343;0.000;0.000;2022-08-05T15:01:24;100340.94;;;21.25;60.56
44637;BME280;30343;0.000;0.000;2022-08-05T15:04:10;100330.38;;;21.25;60.83
44637;BME280;30343;0.000;0.000;2022-08-05T15:06:57;100334.72;;;21.28;60.59
44637;BME280;30343;0.000;0.000;2022-08-05T15:09:47;100332.06;;;21.28;60.33
44637;BME280;30343;0.000;0.000;2022-08-05T15:12:30;100333.81;;;21.27;60.74
44637;BME280;30343;0.000;0.000;2022-08-05T15:15:18;100340.81;;;21.30;60.84